Saint Hedwig, TX

03:53 CST le 22 décembre 2014 (GMT -0600)
San Antonio International | Change Station
CLOSE
Current Station
Aéroport
Location: San Antonio,
Altitude: 794 ft
Stations météo à proximité

Alt. 794 ft 29.53 °N, 98.47 °W | Updated 5 minutes ago

Couvert
Couvert
57 ° F
Paraît 57 ° F
N
7
Vent Variable Vent de SO

Aujourd'hui
Haut(e) -- | Bas -- ° F
--% Risque de précip.
Hier
Haut(e) -- | Bas -- ° F
Precip. -- pouce
7:23 AM 5:39 PM
Nouvelle lune, 0% visible
Pression 29.79 pouce
Visibilité 3.0 Miles terrestres
Nuages Nuages épars 400 ft
Couvert 1100 ft
Point de rosée 54 ° F
Humidité 88%
Précipitations 0.00 pouce
Profondeur de la couche neigeuse Non disponible.
UV 0 sur 12
Pollen 9.10 sur 12
Qualité de l'air Non disponible.
Flu Activity Non disponible.
SPECI KSAT 220948Z 23006KT 3SM -DZ BR SCT004 OVC011 14/12 A2979 RMK AO2 P0000

More Conditions Fewer Conditions

Pression 29.79 pouce
Visibilité 3.0 Miles terrestres
Nuages Nuages épars 400 ft
Couvert 1100 ft
Point de rosée 54 ° F
Humidité 88%
Précipitations 0.00 pouce
Profondeur de la couche neigeuse Non disponible.
UV 0 sur 12
Pollen 9.10 sur 12
Qualité de l'air Non disponible.
Flu Activity Non disponible.
SPECI KSAT 220948Z 23006KT 3SM -DZ BR SCT004 OVC011 14/12 A2979 RMK AO2 P0000

More Conditions Fewer Conditions

10-Day Weather Forecast

Almanac

Astronomie

Dec. 22, 2014 Lever Coucher
Temps réel
Crépuscule civil
Crépuscule nautique
Crépuscule astronomique
Lune
Durée de lumière visible
Longueur du jour
Tomorrow will be .
, % of the Moon is Illuminated

Extrêmes aujourd'hui

State Highs State Lows

Community

WunderPhotos

Upload Photos

1,779,583 Photos téléchargées !

WunderBlogs® & News

Nearby

Qualité de l'air

  Qualité de l'air Indice de la qualité de l'air Polluant
Not available.

Épaisseur de neige

Station Depth Altitude

Activité sismique

Ville Distance Mag. Time & Date
Minimum magnitude displayed is 2.5.

Températures des eaux côtières

Lieu Température

Stations météo à proximité